sensor_id;sensor_type;location;lat;lon;timestamp;temperature;humidity
2639;DHT22;1329;51.384;7.122;2023-11-19T00:00:21;11.70;99.90
2639;DHT22;1329;51.384;7.122;2023-11-19T00:02:49;11.80;99.90
2639;DHT22;1329;51.384;7.122;2023-11-19T00:05:17;11.80;99.90
2639;DHT22;1329;51.384;7.122;2023-11-19T00:07:45;11.80;99.90
2639;DHT22;1329;51.384;7.122;2023-11-19T00:10:16;11.90;99.90
2639;DHT22;1329;51.384;7.122;2023-11-19T00:12:48;11.90;99.90
2639;DHT22;1329;51.384;7.122;2023-11-19T00:15:17;11.90;99.90
2639;DHT22;1329;51.384;7.122;2023-11-19T00:17:46;12.00;99.90
2639;DHT22;1329;51.384;7.122;2023-11-19T00:20:15;12.00;99.90
2639;DHT22;1329;51.384;7.122;2023-11-19T00:22:44;12.00;99.90
2639;DHT22;1329;51.384;7.122;2023-11-19T00:25:14;12.10;99.90
2639;DHT22;1329;51.384;7.122;2023-11-19T00:27:42;12.10;99.90
2639;DHT22;1329;51.384;7.122;2023-11-19T00:30:12;12.10;99.90
2639;DHT22;1329;51.384;7.122;2023-11-19T00:32:41;12.20;99.90
2639;DHT22;1329;51.384;7.122;2023-11-19T00:35:08;12.20;99.90
2639;DHT22;1329;51.384;7.122;2023-11-19T00:37:37;12.20;99.90
2639;DHT22;1329;51.384;7.122;2023-11-19T00:40:06;12.30;99.90
2639;DHT22;1329;51.384;7.122;2023-11-19T00:42:36;12.30;99.90
2639;DHT22;1329;51.384;7.122;2023-11-19T00:45:05;12.40;99.90
2639;DHT22;1329;51.384;7.122;2023-11-19T00:47:36;12.40;99.90
2639;DHT22;1329;51.384;7.122;2023-11-19T00:50:05;12.50;99.90
2639;DHT22;1329;51.384;7.122;2023-11-19T00:52:35;12.50;99.90
2639;DHT22;1329;51.384;7.122;2023-11-19T00:55:03;12.50;99.90
2639;DHT22;1329;51.384;7.122;2023-11-19T00:57:32;12.60;99.90
2639;DHT22;1329;51.384;7.122;2023-11-19T01:00:00;12.60;99.90
2639;DHT22;1329;51.384;7.122;2023-11-19T01:02:28;12.60;99.90
2639;DHT22;1329;51.384;7.122;2023-11-19T01:04:58;12.70;99.90
2639;DHT22;1329;51.384;7.122;2023-11-19T01:07:25;12.70;99.90
2639;DHT22;1329;51.384;7.122;2023-11-19T01:09:53;12.80;99.90
2639;DHT22;1329;51.384;7.122;2023-11-19T01:12:21;12.80;99.90
2639;DHT22;1329;51.384;7.122;2023-11-19T01:14:48;12.80;99.90
2639;DHT22;1329;51.384;7.122;2023-11-19T01:17:16;12.90;99.90
2639;DHT22;1329;51.384;7.122;2023-11-19T01:19:44;12.80;99.90
2639;DHT22;1329;51.384;7.122;2023-11-19T01:22:13;12.90;99.90
2639;DHT22;1329;51.384;7.122;2023-11-19T01:24:40;12.80;99.90
2639;DHT22;1329;51.384;7.122;2023-11-19T01:27:08;12.90;99.90
2639;DHT22;1329;51.384;7.122;2023-11-19T01:29:35;12.90;99.90
2639;DHT22;1329;51.384;7.122;2023-11-19T01:32:04;13.00;99.90
2639;DHT22;1329;51.384;7.122;2023-11-19T01:34:32;13.00;99.90
2639;DHT22;1329;51.384;7.122;2023-11-19T01:36:59;13.00;99.90
2639;DHT22;1329;51.384;7.122;2023-11-19T01:39:29;13.00;99.90
2639;DHT22;1329;51.384;7.122;2023-11-19T01:41:56;13.00;99.90
2639;DHT22;1329;51.384;7.122;2023-11-19T01:44:24;13.00;99.90
2639;DHT22;1329;51.384;7.122;2023-11-19T01:46:52;13.00;99.90
2639;DHT22;1329;51.384;7.122;2023-11-19T01:49:20;13.00;99.90
2639;DHT22;1329;51.384;7.122;2023-11-19T01:51:48;13.00;99.90
2639;DHT22;1329;51.384;7.122;2023-11-19T01:54:17;13.00;99.90
2639;DHT22;1329;51.384;7.122;2023-11-19T01:56:46;13.10;99.90
2639;DHT22;1329;51.384;7.122;2023-11-19T01:59:14;13.10;99.90
2639;DHT22;1329;51.384;7.122;2023-11-19T02:01:42;13.10;99.90
2639;DHT22;1329;51.384;7.122;2023-11-19T02:04:10;13.10;99.90
2639;DHT22;1329;51.384;7.122;2023-11-19T02:06:40;13.10;99.90
2639;DHT22;1329;51.384;7.122;2023-11-19T02:09:09;13.10;99.90
2639;DHT22;1329;51.384;7.122;2023-11-19T02:11:37;13.20;99.90
2639;DHT22;1329;51.384;7.122;2023-11-19T02:14:08;13.30;99.90
2639;DHT22;1329;51.384;7.122;2023-11-19T02:16:36;13.20;99.90
2639;DHT22;1329;51.384;7.122;2023-11-19T02:19:04;13.20;99.90
2639;DHT22;1329;51.384;7.122;2023-11-19T02:21:32;13.30;99.90
2639;DHT22;1329;51.384;7.122;2023-11-19T02:24:00;13.30;99.90
2639;DHT22;1329;51.384;7.122;2023-11-19T02:26:33;13.30;99.90
2639;DHT22;1329;51.384;7.122;2023-11-19T02:29:06;13.30;99.90
2639;DHT22;1329;51.384;7.122;2023-11-19T02:31:36;13.30;99.90
2639;DHT22;1329;51.384;7.122;2023-11-19T02:34:04;13.30;99.90
2639;DHT22;1329;51.384;7.122;2023-11-19T02:36:32;13.30;99.90
2639;DHT22;1329;51.384;7.122;2023-11-19T02:39:00;13.30;99.90
2639;DHT22;1329;51.384;7.122;2023-11-19T02:41:28;13.30;99.90
2639;DHT22;1329;51.384;7.122;2023-11-19T02:43:56;13.40;99.90
2639;DHT22;1329;51.384;7.122;2023-11-19T02:46:25;13.30;99.90
2639;DHT22;1329;51.384;7.122;2023-11-19T02:48:52;13.40;99.90
2639;DHT22;1329;51.384;7.122;2023-11-19T02:51:20;13.40;99.90
2639;DHT22;1329;51.384;7.122;2023-11-19T02:53:47;13.40;99.90
2639;DHT22;1329;51.384;7.122;2023-11-19T02:56:15;13.40;99.90
2639;DHT22;1329;51.384;7.122;2023-11-19T02:58:46;13.40;99.90
2639;DHT22;1329;51.384;7.122;2023-11-19T03:01:21;13.40;99.90
2639;DHT22;1329;51.384;7.122;2023-11-19T03:03:58;13.50;99.90
2639;DHT22;1329;51.384;7.122;2023-11-19T03:06:26;13.50;99.90
2639;DHT22;1329;51.384;7.122;2023-11-19T03:08:57;13.50;99.90
2639;DHT22;1329;51.384;7.122;2023-11-19T03:11:31;13.50;99.90
2639;DHT22;1329;51.384;7.122;2023-11-19T03:13:59;13.50;99.90
2639;DHT22;1329;51.384;7.122;2023-11-19T03:16:28;13.50;99.90
2639;DHT22;1329;51.384;7.122;2023-11-19T03:18:57;13.60;99.90
2639;DHT22;1329;51.384;7.122;2023-11-19T03:21:29;13.60;99.90
2639;DHT22;1329;51.384;7.122;2023-11-19T03:23:57;13.60;99.90
2639;DHT22;1329;51.384;7.122;2023-11-19T03:26:26;13.60;99.90
2639;DHT22;1329;51.384;7.122;2023-11-19T03:28:54;13.70;99.90
2639;DHT22;1329;51.384;7.122;2023-11-19T03:31:22;13.70;99.90
2639;DHT22;1329;51.384;7.122;2023-11-19T03:33:51;13.70;99.90
2639;DHT22;1329;51.384;7.122;2023-11-19T03:36:20;13.70;99.90
2639;DHT22;1329;51.384;7.122;2023-11-19T03:38:48;13.70;99.90
2639;DHT22;1329;51.384;7.122;2023-11-19T03:41:16;13.70;99.90
2639;DHT22;1329;51.384;7.122;2023-11-19T03:43:44;13.70;99.90
2639;DHT22;1329;51.384;7.122;2023-11-19T03:46:18;13.80;99.90
2639;DHT22;1329;51.384;7.122;2023-11-19T03:48:46;13.80;99.90
2639;DHT22;1329;51.384;7.122;2023-11-19T03:51:15;13.80;99.90
2639;DHT22;1329;51.384;7.122;2023-11-19T03:53:45;13.80;99.90
2639;DHT22;1329;51.384;7.122;2023-11-19T03:56:13;13.80;99.90
2639;DHT22;1329;51.384;7.122;2023-11-19T03:58:41;13.80;99.90
2639;DHT22;1329;51.384;7.122;2023-11-19T04:01:11;13.80;99.90
2639;DHT22;1329;51.384;7.122;2023-11-19T04:03:40;13.80;99.90
2639;DHT22;1329;51.384;7.122;2023-11-19T04:06:07;13.80;99.90
2639;DHT22;1329;51.384;7.122;2023-11-19T04:08:35;13.70;99.90
2639;DHT22;1329;51.384;7.122;2023-11-19T04:11:05;13.70;99.90
2639;DHT22;1329;51.384;7.122;2023-11-19T04:13:34;13.70;99.90
2639;DHT22;1329;51.384;7.122;2023-11-19T04:16:02;13.70;99.90
2639;DHT22;1329;51.384;7.122;2023-11-19T04:18:34;13.70;99.90
2639;DHT22;1329;51.384;7.122;2023-11-19T04:21:06;13.60;99.90
2639;DHT22;1329;51.384;7.122;2023-11-19T04:23:34;13.60;99.90
2639;DHT22;1329;51.384;7.122;2023-11-19T04:26:04;13.60;99.90
2639;DHT22;1329;51.384;7.122;2023-11-19T04:28:32;13.50;99.90
2639;DHT22;1329;51.384;7.122;2023-11-19T04:31:00;13.50;99.90
2639;DHT22;1329;51.384;7.122;2023-11-19T04:33:29;13.50;99.90
2639;DHT22;1329;51.384;7.122;2023-11-19T04:35:57;13.50;99.90
2639;DHT22;1329;51.384;7.122;2023-11-19T04:38:24;13.50;99.90
2639;DHT22;1329;51.384;7.122;2023-11-19T04:40:53;13.50;99.90
2639;DHT22;1329;51.384;7.122;2023-11-19T04:43:24;13.40;99.90
2639;DHT22;1329;51.384;7.122;2023-11-19T04:45:52;13.40;99.90
2639;DHT22;1329;51.384;7.122;2023-11-19T04:48:19;13.40;99.90
2639;DHT22;1329;51.384;7.122;2023-11-19T04:50:47;13.40;99.90
2639;DHT22;1329;51.384;7.122;2023-11-19T04:53:14;13.40;99.90
2639;DHT22;1329;51.384;7.122;2023-11-19T04:55:43;13.40;99.90
2639;DHT22;1329;51.384;7.122;2023-11-19T04:58:10;13.40;99.90
2639;DHT22;1329;51.384;7.122;2023-11-19T05:00:41;13.40;99.90
2639;DHT22;1329;51.384;7.122;2023-11-19T05:03:09;13.40;99.90
2639;DHT22;1329;51.384;7.122;2023-11-19T05:05:37;13.40;99.90
2639;DHT22;1329;51.384;7.122;2023-11-19T05:08:06;13.40;99.90
2639;DHT22;1329;51.384;7.122;2023-11-19T05:10:34;13.30;99.90
2639;DHT22;1329;51.384;7.122;2023-11-19T05:13:02;13.30;99.90
2639;DHT22;1329;51.384;7.122;2023-11-19T05:15:30;13.30;99.90
2639;DHT22;1329;51.384;7.122;2023-11-19T05:18:00;13.40;99.90
2639;DHT22;1329;51.384;7.122;2023-11-19T05:20:28;13.40;99.90
2639;DHT22;1329;51.384;7.122;2023-11-19T05:22:55;13.40;99.90
2639;DHT22;1329;51.384;7.122;2023-11-19T05:25:26;13.40;99.90
2639;DHT22;1329;51.384;7.122;2023-11-19T05:27:53;13.40;99.90
2639;DHT22;1329;51.384;7.122;2023-11-19T05:30:21;13.40;99.90
2639;DHT22;1329;51.384;7.122;2023-11-19T05:32:49;13.40;99.90
2639;DHT22;1329;51.384;7.122;2023-11-19T05:35:18;13.40;99.90
2639;DHT22;1329;51.384;7.122;2023-11-19T05:37:45;13.40;99.90
2639;DHT22;1329;51.384;7.122;2023-11-19T05:40:13;13.40;99.90
2639;DHT22;1329;51.384;7.122;2023-11-19T05:42:41;13.40;99.90
2639;DHT22;1329;51.384;7.122;2023-11-19T05:45:11;13.40;99.90
2639;DHT22;1329;51.384;7.122;2023-11-19T05:47:39;13.40;99.90
2639;DHT22;1329;51.384;7.122;2023-11-19T05:50:07;13.40;99.90
2639;DHT22;1329;51.384;7.122;2023-11-19T05:52:38;13.40;99.90
2639;DHT22;1329;51.384;7.122;2023-11-19T05:55:06;13.40;99.90
2639;DHT22;1329;51.384;7.122;2023-11-19T05:57:36;13.40;99.90
2639;DHT22;1329;51.384;7.122;2023-11-19T06:00:04;13.50;99.90
2639;DHT22;1329;51.384;7.122;2023-11-19T06:02:34;13.50;99.90
2639;DHT22;1329;51.384;7.122;2023-11-19T06:05:03;13.50;99.90
2639;DHT22;1329;51.384;7.122;2023-11-19T06:07:32;13.50;99.90
2639;DHT22;1329;51.384;7.122;2023-11-19T06:10:01;13.50;99.90
2639;DHT22;1329;51.384;7.122;2023-11-19T06:12:33;13.50;99.90
2639;DHT22;1329;51.384;7.122;2023-11-19T06:15:05;13.50;99.90
2639;DHT22;1329;51.384;7.122;2023-11-19T06:17:34;13.40;99.90
2639;DHT22;1329;51.384;7.122;2023-11-19T06:20:02;13.50;99.90
2639;DHT22;1329;51.384;7.122;2023-11-19T06:22:31;13.50;99.90
2639;DHT22;1329;51.384;7.122;2023-11-19T06:24:58;13.50;99.90
2639;DHT22;1329;51.384;7.122;2023-11-19T06:27:27;13.50;99.90
2639;DHT22;1329;51.384;7.122;2023-11-19T06:29:55;13.50;99.90
2639;DHT22;1329;51.384;7.122;2023-11-19T06:32:23;13.50;99.90
2639;DHT22;1329;51.384;7.122;2023-11-19T06:34:51;13.50;99.90
2639;DHT22;1329;51.384;7.122;2023-11-19T06:37:18;13.50;99.90
2639;DHT22;1329;51.384;7.122;2023-11-19T06:39:46;13.50;99.90
2639;DHT22;1329;51.384;7.122;2023-11-19T06:42:14;13.40;99.90
2639;DHT22;1329;51.384;7.122;2023-11-19T06:44:43;13.40;99.90
2639;DHT22;1329;51.384;7.122;2023-11-19T06:47:11;13.40;99.90
2639;DHT22;1329;51.384;7.122;2023-11-19T06:49:38;13.40;99.90
2639;DHT22;1329;51.384;7.122;2023-11-19T06:52:06;13.40;99.90
2639;DHT22;1329;51.384;7.122;2023-11-19T06:54:33;13.40;99.90
2639;DHT22;1329;51.384;7.122;2023-11-19T06:57:01;13.30;99.90
2639;DHT22;1329;51.384;7.122;2023-11-19T06:59:30;13.30;99.90
2639;DHT22;1329;51.384;7.122;2023-11-19T07:01:59;13.30;99.90
2639;DHT22;1329;51.384;7.122;2023-11-19T07:04:27;13.30;99.90
2639;DHT22;1329;51.384;7.122;2023-11-19T07:06:54;13.20;99.90
2639;DHT22;1329;51.384;7.122;2023-11-19T07:09:22;13.20;99.90
2639;DHT22;1329;51.384;7.122;2023-11-19T07:11:49;13.20;99.90
2639;DHT22;1329;51.384;7.122;2023-11-19T07:14:18;13.20;99.90
2639;DHT22;1329;51.384;7.122;2023-11-19T07:16:45;13.20;99.90
2639;DHT22;1329;51.384;7.122;2023-11-19T07:19:15;13.10;99.90
2639;DHT22;1329;51.384;7.122;2023-11-19T07:21:43;13.10;99.90
2639;DHT22;1329;51.384;7.122;2023-11-19T07:24:11;13.10;99.90
2639;DHT22;1329;51.384;7.122;2023-11-19T07:26:42;13.00;99.90
2639;DHT22;1329;51.384;7.122;2023-11-19T07:29:10;13.00;99.90
2639;DHT22;1329;51.384;7.122;2023-11-19T07:31:38;13.00;99.90
2639;DHT22;1329;51.384;7.122;2023-11-19T07:34:05;13.00;99.90
2639;DHT22;1329;51.384;7.122;2023-11-19T07:36:36;13.00;99.90
2639;DHT22;1329;51.384;7.122;2023-11-19T07:39:04;12.90;99.90
2639;DHT22;1329;51.384;7.122;2023-11-19T07:41:31;12.90;99.90
2639;DHT22;1329;51.384;7.122;2023-11-19T07:43:59;12.90;99.90
2639;DHT22;1329;51.384;7.122;2023-11-19T07:46:27;12.90;99.90
2639;DHT22;1329;51.384;7.122;2023-11-19T07:48:54;12.90;99.90
2639;DHT22;1329;51.384;7.122;2023-11-19T07:51:22;12.90;99.90
2639;DHT22;1329;51.384;7.122;2023-11-19T07:53:50;12.80;99.90
2639;DHT22;1329;51.384;7.122;2023-11-19T07:56:18;12.80;99.90
2639;DHT22;1329;51.384;7.122;2023-11-19T07:58:45;12.80;99.90
2639;DHT22;1329;51.384;7.122;2023-11-19T08:01:15;12.80;99.90
2639;DHT22;1329;51.384;7.122;2023-11-19T08:03:43;12.80;99.90
2639;DHT22;1329;51.384;7.122;2023-11-19T08:06:11;12.80;99.90
2639;DHT22;1329;51.384;7.122;2023-11-19T08:08:38;12.80;99.90
2639;DHT22;1329;51.384;7.122;2023-11-19T08:11:07;12.80;99.90
2639;DHT22;1329;51.384;7.122;2023-11-19T08:13:37;12.80;99.90
2639;DHT22;1329;51.384;7.122;2023-11-19T08:16:07;12.80;99.90
2639;DHT22;1329;51.384;7.122;2023-11-19T08:18:35;12.80;99.90
2639;DHT22;1329;51.384;7.122;2023-11-19T08:21:03;12.80;99.90
2639;DHT22;1329;51.384;7.122;2023-11-19T08:23:30;12.80;99.90
2639;DHT22;1329;51.384;7.122;2023-11-19T08:25:58;12.80;99.90
2639;DHT22;1329;51.384;7.122;2023-11-19T08:28:27;12.80;99.90
2639;DHT22;1329;51.384;7.122;2023-11-19T08:30:54;12.90;99.90
2639;DHT22;1329;51.384;7.122;2023-11-19T08:33:22;12.90;99.90
2639;DHT22;1329;51.384;7.122;2023-11-19T08:35:49;12.90;99.90
2639;DHT22;1329;51.384;7.122;2023-11-19T08:38:17;13.00;99.90
2639;DHT22;1329;51.384;7.122;2023-11-19T08:40:44;13.00;99.90
2639;DHT22;1329;51.384;7.122;2023-11-19T08:43:12;13.00;99.90
2639;DHT22;1329;51.384;7.122;2023-11-19T08:45:41;13.00;99.90
2639;DHT22;1329;51.384;7.122;2023-11-19T08:48:08;13.10;99.90
2639;DHT22;1329;51.384;7.122;2023-11-19T08:50:36;13.10;99.90
2639;DHT22;1329;51.384;7.122;2023-11-19T08:53:03;13.10;99.90
2639;DHT22;1329;51.384;7.122;2023-11-19T08:55:32;13.20;99.90
2639;DHT22;1329;51.384;7.122;2023-11-19T08:58:00;13.20;99.90
2639;DHT22;1329;51.384;7.122;2023-11-19T09:00:28;13.20;99.90
2639;DHT22;1329;51.384;7.122;2023-11-19T09:02:59;13.20;99.90
2639;DHT22;1329;51.384;7.122;2023-11-19T09:05:26;13.20;99.90
2639;DHT22;1329;51.384;7.122;2023-11-19T09:07:54;13.30;99.90
2639;DHT22;1329;51.384;7.122;2023-11-19T09:10:21;13.30;99.90
2639;DHT22;1329;51.384;7.122;2023-11-19T09:12:49;13.30;99.90
2639;DHT22;1329;51.384;7.122;2023-11-19T09:15:16;13.30;99.90
2639;DHT22;1329;51.384;7.122;2023-11-19T09:17:44;13.30;99.90
2639;DHT22;1329;51.384;7.122;2023-11-19T09:20:13;13.30;99.90
2639;DHT22;1329;51.384;7.122;2023-11-19T09:22:41;13.30;99.90
2639;DHT22;1329;51.384;7.122;2023-11-19T09:25:09;13.40;99.90
2639;DHT22;1329;51.384;7.122;2023-11-19T09:27:36;13.40;99.90
2639;DHT22;1329;51.384;7.122;2023-11-19T09:30:05;13.40;99.90
2639;DHT22;1329;51.384;7.122;2023-11-19T09:32:33;13.40;99.90
2639;DHT22;1329;51.384;7.122;2023-11-19T09:35:01;13.50;99.90
2639;DHT22;1329;51.384;7.122;2023-11-19T09:37:30;13.60;99.90
2639;DHT22;1329;51.384;7.122;2023-11-19T09:39:58;13.60;99.90
2639;DHT22;1329;51.384;7.122;2023-11-19T09:42:25;13.70;99.90
2639;DHT22;1329;51.384;7.122;2023-11-19T09:44:53;13.70;99.90
2639;DHT22;1329;51.384;7.122;2023-11-19T09:47:22;13.70;99.90
2639;DHT22;1329;51.384;7.122;2023-11-19T09:49:49;13.80;99.90
2639;DHT22;1329;51.384;7.122;2023-11-19T09:52:19;13.80;99.90
2639;DHT22;1329;51.384;7.122;2023-11-19T09:54:48;13.80;99.90
2639;DHT22;1329;51.384;7.122;2023-11-19T09:57:17;13.80;99.90
2639;DHT22;1329;51.384;7.122;2023-11-19T09:59:45;13.80;99.90
2639;DHT22;1329;51.384;7.122;2023-11-19T10:02:14;13.80;99.90
2639;DHT22;1329;51.384;7.122;2023-11-19T10:04:43;13.80;99.90
2639;DHT22;1329;51.384;7.122;2023-11-19T10:07:12;13.80;99.90
2639;DHT22;1329;51.384;7.122;2023-11-19T10:09:40;13.80;99.90
2639;DHT22;1329;51.384;7.122;2023-11-19T10:12:08;13.80;99.90
2639;DHT22;1329;51.384;7.122;2023-11-19T10:14:38;13.90;99.90
2639;DHT22;1329;51.384;7.122;2023-11-19T10:17:07;13.90;99.90
2639;DHT22;1329;51.384;7.122;2023-11-19T10:19:35;13.90;99.90
2639;DHT22;1329;51.384;7.122;2023-11-19T10:22:04;13.90;99.90
2639;DHT22;1329;51.384;7.122;2023-11-19T10:24:32;13.90;99.90
2639;DHT22;1329;51.384;7.122;2023-11-19T10:27:00;13.90;99.90
2639;DHT22;1329;51.384;7.122;2023-11-19T10:29:31;14.00;99.90
2639;DHT22;1329;51.384;7.122;2023-11-19T10:31:59;14.00;99.90
2639;DHT22;1329;51.384;7.122;2023-11-19T10:34:27;14.00;99.90
2639;DHT22;1329;51.384;7.122;2023-11-19T10:36:56;14.00;99.90
2639;DHT22;1329;51.384;7.122;2023-11-19T10:42:20;14.10;99.90
2639;DHT22;1329;51.384;7.122;2023-11-19T10:44:49;14.00;99.90
2639;DHT22;1329;51.384;7.122;2023-11-19T10:47:19;14.10;99.90
2639;DHT22;1329;51.384;7.122;2023-11-19T10:49:47;14.10;99.90
2639;DHT22;1329;51.384;7.122;2023-11-19T10:52:18;14.10;99.90
2639;DHT22;1329;51.384;7.122;2023-11-19T10:54:50;14.10;99.90
2639;DHT22;1329;51.384;7.122;2023-11-19T10:57:20;14.10;99.90
2639;DHT22;1329;51.384;7.122;2023-11-19T10:59:52;14.10;99.90
2639;DHT22;1329;51.384;7.122;2023-11-19T11:02:25;14.10;99.90
2639;DHT22;1329;51.384;7.122;2023-11-19T11:04:53;14.10;99.90
2639;DHT22;1329;51.384;7.122;2023-11-19T11:07:22;14.10;99.90
2639;DHT22;1329;51.384;7.122;2023-11-19T11:09:52;14.20;99.90
2639;DHT22;1329;51.384;7.122;2023-11-19T11:12:22;14.10;99.90
2639;DHT22;1329;51.384;7.122;2023-11-19T11:14:53;14.20;99.90
2639;DHT22;1329;51.384;7.122;2023-11-19T11:17:24;14.20;99.90
2639;DHT22;1329;51.384;7.122;2023-11-19T11:19:55;14.20;99.90
2639;DHT22;1329;51.384;7.122;2023-11-19T11:22:24;14.30;99.90
2639;DHT22;1329;51.384;7.122;2023-11-19T11:25:13;14.30;99.90
2639;DHT22;1329;51.384;7.122;2023-11-19T11:28:03;14.40;99.90
2639;DHT22;1329;51.384;7.122;2023-11-19T11:30:47;14.40;99.90
2639;DHT22;1329;51.384;7.122;2023-11-19T11:33:33;14.40;99.90
2639;DHT22;1329;51.384;7.122;2023-11-19T11:36:13;14.50;99.90
2639;DHT22;1329;51.384;7.122;2023-11-19T11:38:48;14.50;99.90
2639;DHT22;1329;51.384;7.122;2023-11-19T11:41:19;14.50;99.90
2639;DHT22;1329;51.384;7.122;2023-11-19T11:43:48;14.50;99.90
2639;DHT22;1329;51.384;7.122;2023-11-19T11:49:28;14.50;99.90
2639;DHT22;1329;51.384;7.122;2023-11-19T11:52:04;14.50;99.90
2639;DHT22;1329;51.384;7.122;2023-11-19T11:54:31;14.50;99.90
2639;DHT22;1329;51.384;7.122;2023-11-19T11:57:06;14.40;99.90
2639;DHT22;1329;51.384;7.122;2023-11-19T11:59:43;14.40;99.90
2639;DHT22;1329;51.384;7.122;2023-11-19T12:02:16;14.40;99.90
2639;DHT22;1329;51.384;7.122;2023-11-19T12:04:47;14.40;99.90
2639;DHT22;1329;51.384;7.122;2023-11-19T12:07:17;14.40;99.90
2639;DHT22;1329;51.384;7.122;2023-11-19T12:09:51;14.40;99.90
2639;DHT22;1329;51.384;7.122;2023-11-19T12:12:27;14.40;99.90
2639;DHT22;1329;51.384;7.122;2023-11-19T12:15:03;14.40;99.90
2639;DHT22;1329;51.384;7.122;2023-11-19T12:17:43;14.40;99.90
2639;DHT22;1329;51.384;7.122;2023-11-19T12:20:15;14.40;99.90
2639;DHT22;1329;51.384;7.122;2023-11-19T12:22:44;14.40;99.90
2639;DHT22;1329;51.384;7.122;2023-11-19T12:25:13;14.40;99.90
2639;DHT22;1329;51.384;7.122;2023-11-19T12:27:43;14.40;99.90
2639;DHT22;1329;51.384;7.122;2023-11-19T12:30:11;14.50;99.90
2639;DHT22;1329;51.384;7.122;2023-11-19T12:32:42;14.50;99.90
2639;DHT22;1329;51.384;7.122;2023-11-19T12:35:12;14.50;99.90
2639;DHT22;1329;51.384;7.122;2023-11-19T12:37:41;14.50;99.90
2639;DHT22;1329;51.384;7.122;2023-11-19T12:40:16;14.60;99.90
2639;DHT22;1329;51.384;7.122;2023-11-19T12:42:44;14.60;99.90
2639;DHT22;1329;51.384;7.122;2023-11-19T12:45:12;14.60;99.90
2639;DHT22;1329;51.384;7.122;2023-11-19T12:47:43;14.60;99.90
2639;DHT22;1329;51.384;7.122;2023-11-19T12:50:13;14.70;99.90
2639;DHT22;1329;51.384;7.122;2023-11-19T12:52:41;14.70;99.90
2639;DHT22;1329;51.384;7.122;2023-11-19T12:55:24;14.70;99.90
2639;DHT22;1329;51.384;7.122;2023-11-19T12:57:52;14.70;99.90
2639;DHT22;1329;51.384;7.122;2023-11-19T13:00:22;14.70;99.90
2639;DHT22;1329;51.384;7.122;2023-11-19T13:02:52;14.60;99.90
2639;DHT22;1329;51.384;7.122;2023-11-19T13:05:25;14.60;99.90
2639;DHT22;1329;51.384;7.122;2023-11-19T13:08:02;14.60;99.90
2639;DHT22;1329;51.384;7.122;2023-11-19T13:10:31;14.60;99.90
2639;DHT22;1329;51.384;7.122;2023-11-19T13:13:01;14.50;99.90
2639;DHT22;1329;51.384;7.122;2023-11-19T13:15:32;14.50;99.90
2639;DHT22;1329;51.384;7.122;2023-11-19T13:18:02;14.40;99.90
2639;DHT22;1329;51.384;7.122;2023-11-19T13:20:29;14.40;99.90
2639;DHT22;1329;51.384;7.122;2023-11-19T13:22:58;14.30;99.90
2639;DHT22;1329;51.384;7.122;2023-11-19T13:25:26;14.20;99.90
2639;DHT22;1329;51.384;7.122;2023-11-19T13:27:55;14.10;99.90
2639;DHT22;1329;51.384;7.122;2023-11-19T13:30:23;14.10;99.90
2639;DHT22;1329;51.384;7.122;2023-11-19T13:32:52;14.00;99.90
2639;DHT22;1329;51.384;7.122;2023-11-19T13:35:22;13.90;99.90
2639;DHT22;1329;51.384;7.122;2023-11-19T13:37:50;13.80;99.90
2639;DHT22;1329;51.384;7.122;2023-11-19T13:40:18;13.70;99.90
2639;DHT22;1329;51.384;7.122;2023-11-19T13:42:47;13.70;99.90
2639;DHT22;1329;51.384;7.122;2023-11-19T13:45:15;13.60;99.90
2639;DHT22;1329;51.384;7.122;2023-11-19T13:47:45;13.60;99.90
2639;DHT22;1329;51.384;7.122;2023-11-19T13:50:14;13.60;99.90
2639;DHT22;1329;51.384;7.122;2023-11-19T13:52:44;13.60;99.90
2639;DHT22;1329;51.384;7.122;2023-11-19T13:55:13;13.60;99.90
2639;DHT22;1329;51.384;7.122;2023-11-19T13:57:42;13.60;99.90
2639;DHT22;1329;51.384;7.122;2023-11-19T14:00:11;13.60;99.90
2639;DHT22;1329;51.384;7.122;2023-11-19T14:02:42;13.70;99.90
2639;DHT22;1329;51.384;7.122;2023-11-19T14:05:11;13.70;99.90
2639;DHT22;1329;51.384;7.122;2023-11-19T14:07:39;13.70;99.90
2639;DHT22;1329;51.384;7.122;2023-11-19T14:10:09;13.70;99.90
2639;DHT22;1329;51.384;7.122;2023-11-19T14:12:37;13.70;99.90
2639;DHT22;1329;51.384;7.122;2023-11-19T14:15:06;13.70;99.90
2639;DHT22;1329;51.384;7.122;2023-11-19T14:17:35;13.70;99.90
2639;DHT22;1329;51.384;7.122;2023-11-19T14:20:04;13.70;99.90
2639;DHT22;1329;51.384;7.122;2023-11-19T14:22:38;13.70;99.90
2639;DHT22;1329;51.384;7.122;2023-11-19T14:25:08;13.70;99.90
2639;DHT22;1329;51.384;7.122;2023-11-19T14:27:37;13.70;99.90
2639;DHT22;1329;51.384;7.122;2023-11-19T14:30:06;13.70;99.90
2639;DHT22;1329;51.384;7.122;2023-11-19T14:32:37;13.70;99.90
2639;DHT22;1329;51.384;7.122;2023-11-19T14:35:06;13.70;99.90
2639;DHT22;1329;51.384;7.122;2023-11-19T14:37:37;13.70;99.90
2639;DHT22;1329;51.384;7.122;2023-11-19T14:40:05;13.70;99.90
2639;DHT22;1329;51.384;7.122;2023-11-19T14:42:37;13.70;99.90
2639;DHT22;1329;51.384;7.122;2023-11-19T14:45:06;13.70;99.90
2639;DHT22;1329;51.384;7.122;2023-11-19T14:47:37;13.70;99.90
2639;DHT22;1329;51.384;7.122;2023-11-19T14:50:06;13.70;99.90
2639;DHT22;1329;51.384;7.122;2023-11-19T14:52:35;13.70;99.90
2639;DHT22;1329;51.384;7.122;2023-11-19T14:55:03;13.70;99.90
2639;DHT22;1329;51.384;7.122;2023-11-19T14:57:31;13.70;99.90
2639;DHT22;1329;51.384;7.122;2023-11-19T15:00:00;13.60;99.90
2639;DHT22;1329;51.384;7.122;2023-11-19T15:02:39;13.60;99.90
2639;DHT22;1329;51.384;7.122;2023-11-19T15:05:08;13.60;99.90
2639;DHT22;1329;51.384;7.122;2023-11-19T15:07:37;13.60;99.90
2639;DHT22;1329;51.384;7.122;2023-11-19T15:10:07;13.50;99.90
2639;DHT22;1329;51.384;7.122;2023-11-19T15:12:37;13.50;99.90
2639;DHT22;1329;51.384;7.122;2023-11-19T15:15:08;13.40;99.90
2639;DHT22;1329;51.384;7.122;2023-11-19T15:17:39;13.40;99.90
2639;DHT22;1329;51.384;7.122;2023-11-19T15:20:08;13.40;99.90
2639;DHT22;1329;51.384;7.122;2023-11-19T15:22:36;13.40;99.90
2639;DHT22;1329;51.384;7.122;2023-11-19T15:25:04;13.30;99.90
2639;DHT22;1329;51.384;7.122;2023-11-19T15:27:35;13.30;99.90
2639;DHT22;1329;51.384;7.122;2023-11-19T15:30:04;13.20;99.90
2639;DHT22;1329;51.384;7.122;2023-11-19T15:32:35;13.20;99.90
2639;DHT22;1329;51.384;7.122;2023-11-19T15:35:03;13.20;99.90
2639;DHT22;1329;51.384;7.122;2023-11-19T15:37:32;13.20;99.90
2639;DHT22;1329;51.384;7.122;2023-11-19T15:40:00;13.20;99.90
2639;DHT22;1329;51.384;7.122;2023-11-19T15:42:30;13.20;99.90
2639;DHT22;1329;51.384;7.122;2023-11-19T15:44:57;13.20;99.90
2639;DHT22;1329;51.384;7.122;2023-11-19T15:47:25;13.10;99.90
2639;DHT22;1329;51.384;7.122;2023-11-19T15:49:54;13.10;99.90
2639;DHT22;1329;51.384;7.122;2023-11-19T15:52:21;13.10;99.90
2639;DHT22;1329;51.384;7.122;2023-11-19T15:54:49;13.10;99.90
2639;DHT22;1329;51.384;7.122;2023-11-19T15:57:16;13.00;99.90
2639;DHT22;1329;51.384;7.122;2023-11-19T15:59:44;13.10;99.90
2639;DHT22;1329;51.384;7.122;2023-11-19T16:02:13;13.00;99.90
2639;DHT22;1329;51.384;7.122;2023-11-19T16:04:41;13.00;99.90
2639;DHT22;1329;51.384;7.122;2023-11-19T16:07:14;13.00;99.90
2639;DHT22;1329;51.384;7.122;2023-11-19T16:09:42;13.00;99.90
2639;DHT22;1329;51.384;7.122;2023-11-19T16:12:09;13.00;99.90
2639;DHT22;1329;51.384;7.122;2023-11-19T16:14:37;13.00;99.90
2639;DHT22;1329;51.384;7.122;2023-11-19T16:17:05;13.00;99.90
2639;DHT22;1329;51.384;7.122;2023-11-19T16:19:33;13.00;99.90